Time;durP1;ratioP1;P1;durP2;ratioP2;P2;SDS_P1;SDS_P2;PMS_P1;PMS_P2;Temp;Humidity;BMP_temperature;BMP_pressure;BME280_temperature;BME280_humidity;BME280_pressure;Samples;Min_cycle;Max_cycle;Signal;HPM_P1;HPM_P2
2022/06/28 00:00:53;;;;;;;5.10;0.90;;;22.00;99.90;;;;;;5083990;28;20392;-76
2022/06/28 00:03:19;;;;;;;1.25;0.80;;;21.90;99.90;;;;;;5085200;28;20045;-77
2022/06/28 00:05:45;;;;;;;2.30;0.70;;;21.90;99.90;;;;;;5072894;28;20047;-80
2022/06/28 00:08:12;;;;;;;1.83;0.80;;;21.80;99.90;;;;;;5069829;28;20040;-76
2022/06/28 00:10:40;;;;;;;1.27;0.90;;;21.80;99.90;;;;;;5083266;28;20047;-78
2022/06/28 00:13:07;;;;;;;2.17;1.00;;;21.80;99.90;;;;;;5064740;28;20041;-78
2022/06/28 00:18:19;;;;;;;4.18;0.90;;;21.70;99.90;;;;;;5067326;28;20040;-80
2022/06/28 00:20:45;;;;;;;3.95;1.00;;;21.80;99.90;;;;;;5070607;28;20032;-77
2022/06/28 00:23:11;;;;;;;1.80;1.02;;;21.80;99.90;;;;;;5084255;28;20041;-78
2022/06/28 00:25:39;;;;;;;2.42;0.90;;;21.90;99.90;;;;;;5086510;28;20056;-79
2022/06/28 00:28:06;;;;;;;3.75;0.88;;;21.90;99.90;;;;;;5068491;28;20075;-79
2022/06/28 00:30:32;;;;;;;1.85;0.88;;;21.80;99.90;;;;;;5079581;28;20041;-77
2022/06/28 00:33:00;;;;;;;5.07;1.00;;;21.90;99.90;;;;;;5080437;28;20557;-79
2022/06/28 00:35:27;;;;;;;2.80;1.10;;;21.90;99.90;;;;;;5068346;28;20050;-79
2022/06/28 00:37:54;;;;;;;1.92;0.82;;;21.90;99.90;;;;;;5063227;28;20064;-78
2022/06/28 00:40:20;;;;;;;1.70;0.82;;;21.90;99.90;;;;;;5061687;28;20123;-76
2022/06/28 00:42:46;;;;;;;1.45;1.00;;;21.90;99.90;;;;;;5081316;28;20037;-80
2022/06/28 00:45:13;;;;;;;2.08;0.60;;;22.00;99.90;;;;;;5068058;28;20017;-77
2022/06/28 00:47:39;;;;;;;2.03;0.90;;;22.00;99.90;;;;;;5064687;28;20468;-78
2022/06/28 00:50:05;;;;;;;1.77;1.10;;;22.00;99.90;;;;;;5080165;28;20702;-79
2022/06/28 00:52:31;;;;;;;2.78;0.70;;;22.00;99.90;;;;;;5071431;28;20033;-77
2022/06/28 00:54:57;;;;;;;3.90;0.90;;;22.00;99.90;;;;;;5066969;28;20155;-79
2022/06/28 00:57:24;;;;;;;1.98;0.95;;;22.00;99.90;;;;;;5085208;28;20095;-79
2022/06/28 00:59:51;;;;;;;1.30;0.90;;;22.10;99.90;;;;;;5086157;28;20660;-79
2022/06/28 01:02:17;;;;;;;1.83;0.90;;;22.10;99.90;;;;;;5068891;28;20055;-79
2022/06/28 01:04:43;;;;;;;4.30;1.10;;;22.00;99.90;;;;;;5085367;28;20041;-79
2022/06/28 01:07:12;;;;;;;1.60;0.70;;;22.10;99.90;;;;;;5086590;28;20059;-79
2022/06/28 01:09:38;;;;;;;2.33;1.05;;;22.10;99.90;;;;;;5064350;28;20132;-79
2022/06/28 01:12:06;;;;;;;2.35;1.05;;;22.10;99.90;;;;;;5068871;28;20093;-78
2022/06/28 01:14:32;;;;;;;2.88;1.00;;;22.10;99.90;;;;;;5069168;28;20045;-79
2022/06/28 01:16:58;;;;;;;1.13;0.80;;;22.10;99.90;;;;;;5069511;28;20040;-78
2022/06/28 01:19:26;;;;;;;3.00;1.10;;;22.20;99.90;;;;;;5070363;28;20036;-80
2022/06/28 01:21:55;;;;;;;2.38;1.10;;;22.10;99.90;;;;;;5087657;28;20040;-78
2022/06/28 01:24:22;;;;;;;5.38;1.20;;;22.20;99.90;;;;;;5084257;28;20497;-79
2022/06/28 01:26:50;;;;;;;2.53;1.10;;;22.00;99.90;;;;;;5070465;28;20033;-79
2022/06/28 01:29:16;;;;;;;2.85;1.02;;;22.00;99.90;;;;;;5070666;28;20067;-79
2022/06/28 01:31:43;;;;;;;1.95;1.00;;;22.00;99.90;;;;;;5070986;28;20068;-78
2022/06/28 01:34:10;;;;;;;1.65;0.95;;;22.00;99.90;;;;;;5081986;28;20500;-81
2022/06/28 01:36:38;;;;;;;1.90;0.90;;;22.00;99.90;;;;;;5068224;28;20071;-77
2022/06/28 01:39:05;;;;;;;1.73;0.90;;;22.10;99.90;;;;;;5068931;28;20044;-78
2022/06/28 01:41:34;;;;;;;1.58;1.00;;;22.10;99.90;;;;;;5064441;28;20091;-81
2022/06/28 01:44:06;;;;;;;2.85;1.40;;;22.00;99.90;;;;;;5080968;28;20055;-82
2022/06/28 01:46:34;;;;;;;;;;;21.90;99.90;;;;;;5080154;28;20068;-78
2022/06/28 01:49:00;;;;;;;2.40;1.00;;;21.90;99.90;;;;;;5064426;28;19917;-76
2022/06/28 01:51:27;;;;;;;1.63;0.90;;;21.90;99.90;;;;;;5063671;28;20041;-78
2022/06/28 01:53:54;;;;;;;3.47;1.20;;;21.90;99.90;;;;;;5081407;28;20071;-82
2022/06/28 01:56:21;;;;;;;2.47;1.00;;;22.00;99.90;;;;;;5076937;28;20048;-78
2022/06/28 01:58:47;;;;;;;3.25;1.05;;;21.90;99.90;;;;;;5074751;28;20111;-79
2022/06/28 02:01:14;;;;;;;4.18;1.30;;;21.90;99.90;;;;;;5067614;28;20523;-75
2022/06/28 02:03:41;;;;;;;3.40;1.20;;;21.80;99.90;;;;;;5072742;28;20051;-80
2022/06/28 02:06:09;;;;;;;1.90;1.00;;;21.80;99.90;;;;;;5083911;28;20037;-76
2022/06/28 02:08:40;;;;;;;2.03;1.10;;;21.80;99.90;;;;;;5071184;28;20037;-79
2022/06/28 02:11:07;;;;;;;2.00;1.08;;;21.80;99.90;;;;;;5069580;28;20045;-77
2022/06/28 02:13:34;;;;;;;2.75;1.23;;;21.80;99.90;;;;;;5081911;28;20043;-76
2022/06/28 02:16:02;;;;;;;2.00;1.33;;;21.70;99.90;;;;;;5072122;28;20139;-77
2022/06/28 02:18:30;;;;;;;4.32;2.17;;;21.70;99.90;;;;;;5071598;28;20115;-77
2022/06/28 02:20:58;;;;;;;1.70;1.05;;;21.70;99.90;;;;;;5070074;28;20033;-77
2022/06/28 02:23:24;;;;;;;1.52;1.00;;;21.60;99.90;;;;;;5084019;28;20040;-80
2022/06/28 02:25:51;;;;;;;2.38;1.20;;;21.60;99.90;;;;;;5071442;28;20119;-77
2022/06/28 02:28:18;;;;;;;2.65;1.10;;;21.60;99.90;;;;;;5062409;28;20845;-79
2022/06/28 02:30:44;;;;;;;3.58;1.20;;;21.70;99.90;;;;;;5080598;28;20095;-77
2022/06/28 02:33:10;;;;;;;4.57;1.40;;;21.70;99.90;;;;;;5055842;28;20630;-78
2022/06/28 02:41:05;;;;;;;2.65;1.48;;;21.70;99.90;;;;;;5071581;28;20059;-77
2022/06/28 02:43:35;;;;;;;3.47;1.38;;;21.70;99.90;;;;;;5071761;28;20492;-77
2022/06/28 02:46:01;;;;;;;4.13;1.58;;;21.80;99.90;;;;;;5081672;28;20029;-77
2022/06/28 02:48:29;;;;;;;3.95;1.63;;;21.70;99.90;;;;;;5071190;28;20033;-79
2022/06/28 02:50:54;;;;;;;2.22;1.35;;;21.70;99.90;;;;;;5069690;28;20066;-76
2022/06/28 02:53:20;;;;;;;3.10;1.40;;;21.70;99.90;;;;;;5082388;28;20048;-79
2022/06/28 02:55:46;;;;;;;2.85;1.35;;;21.70;99.90;;;;;;5053747;28;20131;-78
2022/06/28 02:58:12;;;;;;;4.20;1.60;;;21.80;99.90;;;;;;5062980;28;20045;-76
2022/06/28 03:00:38;;;;;;;4.55;1.52;;;21.90;99.90;;;;;;5054891;28;20025;-76
2022/06/28 03:03:04;;;;;;;2.83;1.50;;;21.90;99.90;;;;;;5050769;28;20555;-78
2022/06/28 03:05:30;;;;;;;1.50;1.40;;;21.90;99.90;;;;;;5065276;28;20045;-78
2022/06/28 03:07:58;;;;;;;1.63;1.40;;;21.90;99.90;;;;;;5080847;28;20060;-78
2022/06/28 03:10:24;;;;;;;2.63;1.50;;;21.90;99.90;;;;;;5050544;28;20369;-78
2022/06/28 03:12:50;;;;;;;2.80;1.50;;;21.80;99.90;;;;;;5060649;28;20033;-76
2022/06/28 03:15:16;;;;;;;2.58;1.35;;;21.80;99.90;;;;;;5045992;28;20048;-80
2022/06/28 03:17:44;;;;;;;3.22;1.40;;;21.70;99.90;;;;;;5084466;28;20043;-78
2022/06/28 03:20:12;;;;;;;2.38;1.40;;;21.60;99.90;;;;;;5055263;28;20033;-78
2022/06/28 03:22:38;;;;;;;2.28;1.30;;;21.50;99.90;;;;;;5073033;28;20189;-81
2022/06/28 03:25:04;;;;;;;3.25;1.40;;;21.40;99.90;;;;;;5073838;28;20085;-79
2022/06/28 03:27:30;;;;;;;6.32;1.27;;;21.40;99.90;;;;;;5065756;28;20392;-77
2022/06/28 03:29:56;;;;;;;2.17;1.35;;;21.50;99.90;;;;;;5079862;28;20033;-80
2022/06/28 03:32:24;;;;;;;3.75;1.30;;;21.40;99.90;;;;;;5081008;28;22135;-79
2022/06/28 03:34:51;;;;;;;3.33;1.50;;;21.40;99.90;;;;;;5067875;28;20032;-80
2022/06/28 03:37:18;;;;;;;2.75;1.40;;;21.40;99.90;;;;;;5073046;28;20045;-77
2022/06/28 03:39:44;;;;;;;3.75;1.70;;;21.40;99.90;;;;;;5083043;28;20166;-80
2022/06/28 03:42:10;;;;;;;4.70;1.40;;;21.30;99.90;;;;;;5058751;28;20065;-77
2022/06/28 03:44:36;;;;;;;4.35;1.25;;;21.30;99.90;;;;;;5058922;28;20129;-77
2022/06/28 03:47:02;;;;;;;4.45;1.48;;;21.30;99.90;;;;;;5090086;28;20072;-82
2022/06/28 03:49:28;;;;;;;2.88;1.40;;;21.20;99.90;;;;;;5085122;28;20036;-76
2022/06/28 03:51:54;;;;;;;2.63;1.35;;;21.20;99.90;;;;;;5068877;28;20116;-77
2022/06/28 03:54:20;;;;;;;3.35;1.35;;;21.30;99.90;;;;;;5084175;28;20068;-80
2022/06/28 03:56:47;;;;;;;4.35;1.60;;;21.10;99.90;;;;;;5083136;28;20032;-78
2022/06/28 03:59:15;;;;;;;4.00;1.52;;;21.00;99.90;;;;;;5042225;28;20404;-78
2022/06/28 04:01:41;;;;;;;2.00;1.23;;;21.00;99.90;;;;;;5067161;28;20039;-77
2022/06/28 04:04:07;;;;;;;2.83;1.17;;;20.90;99.90;;;;;;5068078;28;20044;-81
2022/06/28 04:06:34;;;;;;;2.40;1.30;;;21.00;99.90;;;;;;5079770;28;20039;-78
2022/06/28 04:09:01;;;;;;;3.70;1.50;;;21.00;99.90;;;;;;5081038;28;20385;-77
2022/06/28 04:11:28;;;;;;;2.22;1.30;;;20.90;99.90;;;;;;5056548;28;20096;-78
2022/06/28 04:13:54;;;;;;;5.00;2.13;;;20.80;99.90;;;;;;5069877;28;20036;-80
2022/06/28 04:16:22;;;;;;;4.38;1.50;;;20.60;99.90;;;;;;5059665;28;20052;-79
2022/06/28 04:18:49;;;;;;;3.05;1.48;;;20.40;99.90;;;;;;5063435;28;20439;-75
2022/06/28 04:21:17;;;;;;;2.42;1.40;;;20.40;99.90;;;;;;5061585;28;20746;-77
2022/06/28 04:23:43;;;;;;;4.13;1.40;;;20.20;99.90;;;;;;5082644;28;20044;-80
2022/06/28 04:26:09;;;;;;;3.53;1.70;;;20.30;99.90;;;;;;5066736;28;20041;-75
2022/06/28 04:28:35;;;;;;;4.25;1.88;;;20.30;99.90;;;;;;5061916;28;20036;-77
2022/06/28 04:31:03;;;;;;;2.00;1.40;;;20.30;99.90;;;;;;5068819;28;20528;-77
2022/06/28 04:33:29;;;;;;;4.30;1.73;;;20.50;99.90;;;;;;5043379;28;20029;-79
2022/06/28 04:35:57;;;;;;;4.68;2.10;;;20.50;99.90;;;;;;5045507;28;20037;-79
2022/06/28 04:38:24;;;;;;;5.15;2.75;;;20.50;99.90;;;;;;5046559;28;20094;-80
2022/06/28 04:40:50;;;;;;;3.50;1.60;;;20.40;99.90;;;;;;5041295;28;20024;-77
2022/06/28 04:43:17;;;;;;;3.22;1.80;;;20.40;99.90;;;;;;5047878;28;20583;-79
2022/06/28 04:45:43;;;;;;;2.45;1.55;;;20.40;99.90;;;;;;5077620;28;20028;-78
2022/06/28 04:48:09;;;;;;;2.63;1.60;;;20.40;99.90;;;;;;5054009;28;20040;-80
2022/06/28 04:50:36;;;;;;;2.08;1.55;;;20.40;99.90;;;;;;5082433;28;20036;-78
2022/06/28 04:53:02;;;;;;;5.15;1.60;;;20.40;99.90;;;;;;5069978;28;20396;-79
2022/06/28 04:55:28;;;;;;;4.32;1.60;;;20.40;99.90;;;;;;5067626;28;20090;-79
2022/06/28 04:57:54;;;;;;;3.20;1.73;;;20.40;99.90;;;;;;5070601;28;20097;-77
2022/06/28 05:00:22;;;;;;;5.57;1.90;;;20.50;99.90;;;;;;5046055;28;20051;-77
2022/06/28 05:02:47;;;;;;;6.15;2.08;;;20.40;99.90;;;;;;5081532;28;20044;-77
2022/06/28 05:05:14;;;;;;;3.35;1.73;;;20.50;99.90;;;;;;5056426;28;20045;-76
2022/06/28 05:07:40;;;;;;;5.00;2.28;;;20.50;99.90;;;;;;5075333;28;20041;-80
2022/06/28 05:10:08;;;;;;;5.93;2.00;;;20.50;99.90;;;;;;5081812;28;20037;-77
2022/06/28 05:12:34;;;;;;;2.58;1.60;;;20.40;99.90;;;;;;5048672;28;20045;-78
2022/06/28 05:15:00;;;;;;;3.47;1.50;;;20.50;99.90;;;;;;5046428;28;20044;-79
2022/06/28 05:17:26;;;;;;;4.07;1.30;;;20.60;99.90;;;;;;5048418;28;20373;-76
2022/06/28 05:19:55;;;;;;;3.78;1.60;;;20.70;99.90;;;;;;5054107;28;20294;-77
2022/06/28 05:22:21;;;;;;;3.40;1.80;;;20.70;99.90;;;;;;5052662;28;20060;-80
2022/06/28 05:24:47;;;;;;;3.78;1.70;;;20.70;99.90;;;;;;5063101;28;20028;-77
2022/06/28 05:27:13;;;;;;;3.33;1.80;;;20.70;99.90;;;;;;5080365;28;20052;-77
2022/06/28 05:29:39;;;;;;;3.65;1.70;;;20.80;99.90;;;;;;5071317;28;20032;-82
2022/06/28 05:32:06;;;;;;;3.33;1.58;;;20.80;99.90;;;;;;5091915;28;20033;-79
2022/06/28 05:34:32;;;;;;;2.97;1.52;;;20.90;99.90;;;;;;5071061;28;20483;-77
2022/06/28 05:36:58;;;;;;;3.33;1.58;;;20.80;99.90;;;;;;5074043;28;20040;-80
2022/06/28 05:39:24;;;;;;;2.58;1.45;;;20.80;99.90;;;;;;5067387;28;20104;-77
2022/06/28 05:41:51;;;;;;;3.75;1.40;;;20.80;99.90;;;;;;5074020;28;20052;-79
2022/06/28 05:44:17;;;;;;;4.18;1.67;;;20.80;99.90;;;;;;5068301;28;20036;-78
2022/06/28 05:46:44;;;;;;;3.13;1.98;;;20.90;99.90;;;;;;5085976;28;20108;-76
2022/06/28 05:49:10;;;;;;;4.00;1.50;;;20.90;99.90;;;;;;5071454;28;20045;-81
2022/06/28 05:51:36;;;;;;;5.30;1.52;;;20.90;99.90;;;;;;5087289;28;20093;-77
2022/06/28 05:54:03;;;;;;;3.38;1.67;;;21.10;99.90;;;;;;5087527;28;20058;-79
2022/06/28 05:56:29;;;;;;;7.03;2.10;;;21.00;99.90;;;;;;5074380;28;20059;-78
2022/06/28 05:58:55;;;;;;;4.30;2.08;;;21.00;99.90;;;;;;5071630;28;20029;-79
2022/06/28 06:01:23;;;;;;;6.28;2.05;;;21.00;99.90;;;;;;5068389;28;20041;-78
2022/06/28 06:03:51;;;;;;;4.00;1.70;;;21.10;99.90;;;;;;5068895;28;20040;-77
2022/06/28 06:06:18;;;;;;;3.33;2.03;;;21.10;99.90;;;;;;5065743;28;20037;-77
2022/06/28 06:08:46;;;;;;;6.65;2.47;;;21.00;99.90;;;;;;5070955;28;20044;-79
2022/06/28 06:11:11;;;;;;;6.85;2.28;;;21.00;99.90;;;;;;5048099;28;20045;-79
2022/06/28 06:13:37;;;;;;;5.00;2.03;;;21.10;99.90;;;;;;5089893;28;20032;-78
2022/06/28 06:16:05;;;;;;;4.88;2.30;;;21.10;99.90;;;;;;5045753;28;20123;-76
2022/06/28 06:18:31;;;;;;;4.55;2.35;;;21.20;99.90;;;;;;5083789;28;20058;-78
2022/06/28 06:20:56;;;;;;;3.78;2.08;;;21.30;99.90;;;;;;5067694;28;20028;-78
2022/06/28 06:23:23;;;;;;;4.03;2.10;;;21.30;99.90;;;;;;5069604;28;20123;-77
2022/06/28 06:25:48;;;;;;;5.57;2.20;;;21.40;99.90;;;;;;5069040;28;20063;-80
2022/06/28 06:28:16;;;;;;;4.15;2.08;;;21.50;99.90;;;;;;5086361;28;20044;-78
2022/06/28 06:30:43;;;;;;;6.38;1.98;;;21.70;99.90;;;;;;5086938;28;20375;-78
2022/06/28 06:33:08;;;;;;;3.20;1.80;;;21.70;99.90;;;;;;5071539;28;20041;-77
2022/06/28 06:35:34;;;;;;;5.18;2.40;;;21.80;99.90;;;;;;5070643;28;20499;-77
2022/06/28 06:38:02;;;;;;;4.53;2.00;;;21.90;99.90;;;;;;5067889;28;20154;-77
2022/06/28 06:40:30;;;;;;;3.95;2.28;;;22.00;99.90;;;;;;5069381;28;20044;-76
2022/06/28 06:42:56;;;;;;;6.10;1.48;;;22.00;99.90;;;;;;5070487;28;20035;-76
2022/06/28 06:45:22;;;;;;;4.20;2.40;;;22.10;99.90;;;;;;5080200;28;20584;-76
2022/06/28 06:47:50;;;;;;;3.28;1.63;;;22.20;99.90;;;;;;5066455;28;20622;-76
2022/06/28 06:50:18;;;;;;;4.85;2.20;;;22.30;99.90;;;;;;5066662;28;20535;-78
2022/06/28 06:52:43;;;;;;;3.90;1.88;;;22.40;99.90;;;;;;5068618;28;20778;-76
2022/06/28 06:55:10;;;;;;;5.70;2.05;;;22.50;99.90;;;;;;5065441;28;20131;-77
2022/06/28 06:57:36;;;;;;;4.93;1.80;;;22.70;99.90;;;;;;5072115;28;20037;-77
2022/06/28 07:00:05;;;;;;;6.57;1.60;;;22.80;99.90;;;;;;5083543;28;20060;-76
2022/06/28 07:02:31;;;;;;;9.30;1.98;;;22.80;99.90;;;;;;5073976;28;20033;-77
2022/06/28 07:04:57;;;;;;;8.05;1.85;;;22.90;99.90;;;;;;5085760;28;20051;-77
2022/06/28 07:07:24;;;;;;;5.07;1.77;;;22.90;99.90;;;;;;5069239;28;20033;-78
2022/06/28 07:09:51;;;;;;;4.82;1.80;;;22.90;99.90;;;;;;5080798;28;20560;-77
2022/06/28 07:12:17;;;;;;;4.90;2.00;;;22.90;99.90;;;;;;5065185;28;20107;-76
2022/06/28 07:14:43;;;;;;;3.47;2.10;;;22.90;99.90;;;;;;5083843;28;20047;-77
2022/06/28 07:17:09;;;;;;;3.85;2.17;;;22.90;99.90;;;;;;5068634;28;20400;-78
2022/06/28 07:19:35;;;;;;;4.00;2.05;;;22.90;99.90;;;;;;5065758;28;20037;-76
2022/06/28 07:22:01;;;;;;;7.55;2.25;;;22.90;99.90;;;;;;5083558;28;20035;-76
2022/06/28 07:24:27;;;;;;;4.15;2.00;;;22.90;99.90;;;;;;5045338;28;20060;-79
2022/06/28 07:26:52;;;;;;;4.78;2.03;;;23.10;99.90;;;;;;5081192;28;20047;-77
2022/06/28 07:29:19;;;;;;;4.03;2.47;;;23.10;99.90;;;;;;5048272;28;20044;-77
2022/06/28 07:31:45;;;;;;;5.32;2.25;;;23.20;99.90;;;;;;5047166;28;20049;-79
2022/06/28 07:34:11;;;;;;;6.53;2.40;;;23.10;99.90;;;;;;5049378;28;20120;-79
2022/06/28 07:36:37;;;;;;;4.68;1.73;;;23.20;99.90;;;;;;5065478;28;20519;-77
2022/06/28 07:39:04;;;;;;;4.93;2.25;;;23.30;99.90;;;;;;5046958;28;20102;-80
2022/06/28 07:41:31;;;;;;;5.97;2.05;;;23.40;99.90;;;;;;5051094;28;20036;-77
2022/06/28 07:43:57;;;;;;;5.43;1.80;;;23.40;99.90;;;;;;5059784;28;20045;-80
2022/06/28 07:46:24;;;;;;;4.45;2.05;;;23.40;99.90;;;;;;5047073;28;20040;-77
2022/06/28 07:48:51;;;;;;;5.63;1.90;;;23.50;99.90;;;;;;5065797;28;20072;-81
2022/06/28 07:54:03;;;;;;;6.68;1.95;;;23.50;99.90;;;;;;5059850;28;20086;-78
2022/06/28 07:56:30;;;;;;;6.18;1.67;;;23.60;99.90;;;;;;5054787;28;20426;-77
2022/06/28 07:58:56;;;;;;;6.50;1.95;;;23.60;99.90;;;;;;5082648;28;20545;-78
2022/06/28 08:01:23;;;;;;;7.55;2.05;;;23.70;99.90;;;;;;5065084;28;20044;-76
2022/06/28 08:03:49;;;;;;;4.07;1.60;;;23.90;99.90;;;;;;5082830;28;20098;-80
2022/06/28 08:06:15;;;;;;;6.70;1.67;;;24.00;99.90;;;;;;5056070;28;20074;-78
2022/06/28 08:08:42;;;;;;;4.28;1.77;;;24.00;99.90;;;;;;5038480;28;20035;-77
2022/06/28 08:11:10;;;;;;;6.65;1.60;;;24.00;99.90;;;;;;5064153;28;20123;-78
2022/06/28 08:13:37;;;;;;;4.63;1.73;;;23.90;99.90;;;;;;5065450;28;20554;-77
2022/06/28 08:16:06;;;;;;;3.45;1.48;;;24.00;99.90;;;;;;5082041;28;20032;-82
2022/06/28 08:18:32;;;;;;;3.55;1.73;;;24.10;99.90;;;;;;5082382;28;20036;-79
2022/06/28 08:20:59;;;;;;;3.58;1.73;;;24.20;99.90;;;;;;5062228;28;20036;-77
2022/06/28 08:23:25;;;;;;;4.72;1.65;;;24.10;99.90;;;;;;5077398;28;20032;-80
2022/06/28 08:25:51;;;;;;;4.07;1.75;;;24.10;99.90;;;;;;5059514;28;20053;-77
2022/06/28 08:28:19;;;;;;;4.35;1.70;;;24.20;99.90;;;;;;5056470;28;20044;-79
2022/06/28 08:30:45;;;;;;;3.42;1.95;;;24.30;99.90;;;;;;5047219;28;20040;-78
2022/06/28 08:33:13;;;;;;;3.70;1.90;;;24.30;99.90;;;;;;5074798;28;20048;-78
2022/06/28 08:35:39;;;;;;;2.47;1.50;;;24.40;99.90;;;;;;5080475;28;20041;-78
2022/06/28 08:38:06;;;;;;;3.38;1.65;;;24.50;99.90;;;;;;5045956;28;20500;-78
2022/06/28 08:40:33;;;;;;;3.90;1.88;;;24.50;99.90;;;;;;5073525;28;20102;-82
2022/06/28 08:43:01;;;;;;;3.20;1.55;;;25.10;99.90;;;;;;5044287;28;20035;-78
2022/06/28 08:45:28;;;;;;;3.90;1.80;;;26.60;99.90;;;;;;5081738;28;20037;-80
2022/06/28 08:47:56;;;;;;;4.63;1.65;;;27.40;99.90;;;;;;5063822;28;20101;-76
2022/06/28 08:50:37;;;;;;;3.10;1.42;;;28.10;98.40;;;;;;5074418;28;20399;-78
2022/06/28 08:53:05;;;;;;;2.63;1.30;;;28.40;98.00;;;;;;5056493;28;20083;-79
2022/06/28 08:55:35;;;;;;;6.47;1.40;;;28.00;97.00;;;;;;5064795;28;20147;-79
2022/06/28 08:58:05;;;;;;;5.47;1.45;;;27.80;97.60;;;;;;5063179;28;20040;-79
2022/06/28 09:00:31;;;;;;;3.30;1.30;;;27.20;98.10;;;;;;5064209;28;20059;-79
2022/06/28 09:02:57;;;;;;;6.25;1.27;;;27.70;97.80;;;;;;5062695;28;20032;-78
2022/06/28 09:05:25;;;;;;;4.88;1.27;;;27.90;97.30;;;;;;5079824;28;20044;-80
2022/06/28 09:07:55;;;;;;;4.25;1.40;;;27.90;97.10;;;;;;5063691;28;20058;-82
2022/06/28 09:10:21;;;;;;;3.50;1.35;;;28.20;97.00;;;;;;5061253;28;20096;-82
2022/06/28 09:12:55;;;;;;;4.90;1.67;;;28.20;96.50;;;;;;5062860;28;20040;-78
2022/06/28 09:15:23;;;;;;;3.60;1.40;;;28.80;96.60;;;;;;5079012;28;20039;-77
2022/06/28 09:17:54;;;;;;;4.28;1.65;;;28.60;96.80;;;;;;5057486;28;20029;-77
2022/06/28 09:20:20;;;;;;;4.03;1.77;;;28.90;96.70;;;;;;5066067;28;20096;-78
2022/06/28 09:22:47;;;;;;;5.63;1.50;;;28.90;96.80;;;;;;5080397;28;20510;-77
2022/06/28 09:25:28;;;;;;;3.88;2.05;;;28.60;96.50;;;;;;5047153;28;20051;-78
2022/06/28 09:27:56;;;;;;;4.43;1.52;;;28.80;96.60;;;;;;5075999;28;20828;-81
2022/06/28 09:30:24;;;;;;;8.80;2.30;;;28.30;97.40;;;;;;5064716;28;20123;-77
2022/06/28 09:32:50;;;;;;;5.05;1.75;;;29.30;96.80;;;;;;5078248;28;20046;-77
2022/06/28 09:35:16;;;;;;;4.22;2.20;;;29.20;96.10;;;;;;5062714;28;21290;-79
2022/06/28 09:37:47;;;;;;;5.53;1.70;;;29.00;96.50;;;;;;5066695;28;20507;-80
2022/06/28 09:40:24;;;;;;;;;;;27.30;97.90;;;;;;5065220;28;20044;-76
2022/06/28 09:43:08;;;;;;;4.53;1.50;;;26.40;99.10;;;;;;5063689;28;19916;-78
2022/06/28 09:45:45;;;;;;;7.57;1.90;;;26.00;99.90;;;;;;5064086;28;20096;-78
2022/06/28 09:48:17;;;;;;;2.65;1.85;;;27.80;98.70;;;;;;5077219;28;20055;-78
2022/06/28 09:50:47;;;;;;;5.07;2.00;;;26.70;99.20;;;;;;5052372;28;20044;-80
2022/06/28 09:53:16;;;;;;;8.30;1.90;;;28.20;98.30;;;;;;5063663;28;20303;-77
2022/06/28 09:55:45;;;;;;;3.97;1.85;;;29.60;96.80;;;;;;5062402;28;20048;-78
2022/06/28 09:58:10;;;;;;;4.28;1.77;;;29.90;96.30;;;;;;5062917;28;20163;-78
2022/06/28 10:00:41;;;;;;;2.58;1.65;;;29.90;95.90;;;;;;5051458;28;20100;-79
2022/06/28 10:03:07;;;;;;;4.05;1.80;;;30.20;95.20;;;;;;5063206;28;20044;-78
2022/06/28 10:05:34;;;;;;;3.00;2.03;;;29.90;95.50;;;;;;5081791;28;20041;-80
2022/06/28 10:08:02;;;;;;;4.50;1.70;;;30.00;95.30;;;;;;5069073;28;20044;-78
2022/06/28 10:10:29;;;;;;;6.72;2.00;;;29.80;95.40;;;;;;5063462;28;20093;-80
2022/06/28 10:15:52;;;;;;;6.88;1.92;;;29.80;95.10;;;;;;5055610;28;20090;-78
2022/06/28 10:18:25;;;;;;;5.50;2.00;;;30.40;95.10;;;;;;5066536;28;20028;-78
2022/06/28 10:20:51;;;;;;;4.32;1.90;;;30.10;95.30;;;;;;5064438;28;20056;-81
2022/06/28 10:23:20;;;;;;;4.88;1.60;;;30.70;94.70;;;;;;5068314;28;20481;-79
2022/06/28 10:26:05;;;;;;;3.83;1.60;;;31.10;94.40;;;;;;5061635;28;20032;-78
2022/06/28 10:28:42;;;;;;;3.95;1.90;;;30.70;94.20;;;;;;5080769;28;20040;-78
2022/06/28 10:31:33;;;;;;;8.82;2.45;;;30.80;94.10;;;;;;5073095;28;20037;-80
2022/06/28 10:34:07;;;;;;;7.80;1.70;;;30.50;94.40;;;;;;5080157;28;20068;-77
2022/06/28 10:36:44;;;;;;;4.63;1.80;;;30.50;94.30;;;;;;5061548;28;20048;-77
2022/06/28 10:39:18;;;;;;;3.63;1.75;;;30.70;93.90;;;;;;5062885;28;20075;-78
2022/06/28 10:41:45;;;;;;;5.07;1.67;;;30.20;94.40;;;;;;5076480;28;20067;-79
2022/06/28 10:44:19;;;;;;;4.78;1.58;;;31.00;93.90;;;;;;5065028;28;20041;-78
2022/06/28 10:47:12;;;;;;;6.32;1.60;;;32.10;93.00;;;;;;5061032;28;20032;-77
2022/06/28 10:49:52;;;;;;;7.10;1.70;;;32.10;92.50;;;;;;5070273;28;20029;-77
2022/06/28 10:52:22;;;;;;;4.38;1.58;;;32.30;92.40;;;;;;5079465;28;20570;-78
2022/06/28 10:55:03;;;;;;;7.15;1.63;;;33.00;92.00;;;;;;5081045;28;20045;-77
2022/06/28 10:57:33;;;;;;;6.10;1.60;;;31.80;92.10;;;;;;5081595;28;20037;-78
2022/06/28 11:00:04;;;;;;;2.17;1.10;;;31.30;92.70;;;;;;5076389;28;20044;-78
2022/06/28 11:02:57;;;;;;;;;;;30.80;92.90;;;;;;5053263;28;20539;-80
2022/06/28 11:05:47;;;;;;;5.00;1.45;;;31.50;92.70;;;;;;5057220;28;19921;-77
2022/06/28 11:08:21;;;;;;;3.25;1.30;;;31.80;92.10;;;;;;5029559;28;20435;-77
2022/06/28 11:11:05;;;;;;;2.85;1.27;;;31.40;92.10;;;;;;5066003;28;20044;-77
2022/06/28 11:13:31;;;;;;;3.53;1.23;;;31.80;91.80;;;;;;5015509;28;20142;-77
2022/06/28 11:15:57;;;;;;;6.88;1.20;;;30.90;92.00;;;;;;5088525;28;20498;-77
2022/06/28 11:18:30;;;;;;;4.03;1.48;;;30.80;92.10;;;;;;5074444;28;20120;-79
2022/06/28 11:20:57;;;;;;;4.07;1.02;;;31.10;92.30;;;;;;5076755;28;20040;-80
2022/06/28 11:23:25;;;;;;;3.38;1.67;;;31.20;91.70;;;;;;5070663;28;20052;-77
2022/06/28 11:28:59;;;;;;;3.45;1.25;;;31.30;91.60;;;;;;5062478;28;20059;-77
2022/06/28 11:31:29;;;;;;;5.13;1.40;;;31.20;91.40;;;;;;5062440;28;20060;-79
2022/06/28 11:33:56;;;;;;;2.72;1.30;;;31.70;91.50;;;;;;5050896;28;20047;-78
2022/06/28 11:36:30;;;;;;;5.55;1.20;;;31.70;91.20;;;;;;5082980;28;20040;-77
2022/06/28 11:39:03;;;;;;;3.72;1.10;;;31.70;91.10;;;;;;5084152;28;20059;-81
2022/06/28 11:41:31;;;;;;;4.95;0.90;;;31.80;90.50;;;;;;5065810;28;20062;-77
2022/06/28 11:43:59;;;;;;;2.72;1.10;;;31.20;90.20;;;;;;5063214;28;20075;-78
2022/06/28 11:46:34;;;;;;;4.50;1.17;;;30.80;90.80;;;;;;5067282;28;20043;-78
2022/06/28 11:49:00;;;;;;;3.60;1.23;;;31.60;90.50;;;;;;5080062;28;20035;-77
2022/06/28 11:51:31;;;;;;;1.92;0.90;;;31.60;90.40;;;;;;5069242;28;20036;-77
2022/06/28 11:53:59;;;;;;;3.97;1.13;;;31.10;90.70;;;;;;5079008;28;20033;-76
2022/06/28 11:56:26;;;;;;;4.03;1.20;;;31.80;90.80;;;;;;5074142;28;20040;-80
2022/06/28 11:58:53;;;;;;;2.97;1.10;;;32.40;90.30;;;;;;5060864;28;20040;-76
2022/06/28 12:01:22;;;;;;;4.30;1.17;;;32.20;90.20;;;;;;5060213;28;20046;-81
2022/06/28 12:03:49;;;;;;;2.17;1.00;;;30.40;91.40;;;;;;5060868;28;20045;-83
2022/06/28 12:06:28;;;;;;;6.45;1.77;;;32.10;90.80;;;;;;5054243;28;20122;-79
2022/06/28 12:09:03;;;;;;;6.57;1.58;;;32.80;91.00;;;;;;5055618;28;20147;-81
2022/06/28 12:11:32;;;;;;;8.70;2.10;;;31.50;93.90;;;;;;5065969;28;20085;-79
2022/06/28 12:14:09;;;;;;;5.97;1.90;;;31.40;94.50;;;;;;5078991;28;20037;-77
2022/06/28 12:16:38;;;;;;;4.63;2.00;;;30.50;95.20;;;;;;5049188;28;20182;-83
2022/06/28 12:19:11;;;;;;;2.45;1.60;;;29.90;96.00;;;;;;5054322;28;20401;-83
2022/06/28 12:21:37;;;;;;;7.90;2.10;;;30.50;96.10;;;;;;5074609;28;20037;-83
2022/06/28 12:24:04;;;;;;;4.78;2.10;;;30.80;95.90;;;;;;5086059;28;20037;-77
2022/06/28 12:26:46;;;;;;;3.90;1.65;;;30.40;95.80;;;;;;5062685;28;20040;-78
2022/06/28 12:29:13;;;;;;;10.50;2.22;;;30.80;95.50;;;;;;5080902;28;20060;-77
2022/06/28 12:31:44;;;;;;;6.43;1.85;;;30.70;95.50;;;;;;5081425;28;20495;-77
2022/06/28 12:34:15;;;;;;;7.60;2.10;;;29.50;96.20;;;;;;5075253;28;20033;-79
2022/06/28 12:36:41;;;;;;;3.85;1.60;;;29.10;96.90;;;;;;5084034;28;20037;-78
2022/06/28 12:39:07;;;;;;;4.63;1.80;;;28.10;97.90;;;;;;5070552;28;20051;-77
2022/06/28 12:41:34;;;;;;;5.22;1.80;;;29.60;97.20;;;;;;5070536;28;20511;-82
2022/06/28 12:44:01;;;;;;;7.43;1.98;;;29.70;96.80;;;;;;5067385;28;20036;-77
2022/06/28 12:46:27;;;;;;;8.80;2.00;;;29.20;97.30;;;;;;5066462;28;20041;-79
2022/06/28 12:48:54;;;;;;;6.88;2.13;;;29.10;97.40;;;;;;5085083;28;20451;-78
2022/06/28 12:51:20;;;;;;;10.35;2.35;;;30.00;96.40;;;;;;5067329;28;20036;-81
2022/06/28 12:53:46;;;;;;;10.07;2.15;;;29.80;96.50;;;;;;5051430;28;20461;-78
2022/06/28 12:56:15;;;;;;;7.95;1.88;;;29.20;96.50;;;;;;5067570;28;20041;-78
2022/06/28 12:58:43;;;;;;;5.25;1.80;;;29.50;96.70;;;;;;5068623;28;20114;-77
2022/06/28 13:01:09;;;;;;;7.07;1.80;;;28.80;97.30;;;;;;5077801;28;20037;-78
2022/06/28 13:03:35;;;;;;;4.53;1.92;;;29.60;96.80;;;;;;5065966;28;20041;-76
2022/06/28 13:06:01;;;;;;;7.85;2.05;;;29.80;96.70;;;;;;5048447;28;20124;-78
2022/06/28 13:08:26;;;;;;;3.63;1.80;;;30.40;96.20;;;;;;5065481;28;20021;-78